createdAt,value
2018-06-09T00:00:46.578Z,9.27
2018-06-09T00:03:15.600Z,9.03
2018-06-09T00:05:43.892Z,9.73
2018-06-09T00:08:12.163Z,9.93
2018-06-09T00:10:40.436Z,9.47
2018-06-09T00:13:08.703Z,9.23
2018-06-09T00:15:36.971Z,9.17
2018-06-09T00:18:05.227Z,8.50
2018-06-09T00:20:34.265Z,9.27
2018-06-09T00:23:02.539Z,8.53
2018-06-09T00:25:30.804Z,9.13
2018-06-09T00:27:59.055Z,8.97
2018-06-09T00:30:28.206Z,8.83
2018-06-09T00:32:56.455Z,8.97
2018-06-09T00:35:24.728Z,8.97
2018-06-09T00:37:53.015Z,8.70
2018-06-09T00:40:21.255Z,9.47
2018-06-09T00:42:49.637Z,9.30
2018-06-09T00:45:17.906Z,8.17
2018-06-09T00:47:46.936Z,9.80
2018-06-09T00:50:15.204Z,9.53
2018-06-09T00:52:43.461Z,9.10
2018-06-09T00:55:11.714Z,9.20
2018-06-09T00:57:40.736Z,9.10
2018-06-09T01:00:09.004Z,9.27
2018-06-09T01:02:37.255Z,9.47
2018-06-09T01:05:06.395Z,8.90
2018-06-09T01:07:34.652Z,10.00
2018-06-09T01:10:02.902Z,9.23
2018-06-09T01:12:31.943Z,9.37
2018-06-09T01:15:00.300Z,9.33
2018-06-09T01:17:28.544Z,9.43
2018-06-09T01:19:57.723Z,9.07
2018-06-09T01:22:25.980Z,9.33
2018-06-09T01:24:54.231Z,9.20
2018-06-09T01:27:22.508Z,8.43
2018-06-09T01:29:50.754Z,9.47
2018-06-09T01:32:19.770Z,9.43
2018-06-09T01:34:48.053Z,9.27
2018-06-09T01:37:16.314Z,8.67
2018-06-09T01:39:44.582Z,9.30
2018-06-09T01:42:12.851Z,9.87
2018-06-09T01:44:41.105Z,8.87
2018-06-09T01:47:10.121Z,9.13
2018-06-09T01:49:38.387Z,8.30
2018-06-09T01:52:06.637Z,9.07
2018-06-09T01:54:34.895Z,9.77
2018-06-09T01:57:03.196Z,9.00
2018-06-09T01:59:32.220Z,8.90
2018-06-09T02:02:00.475Z,9.17
2018-06-09T02:04:29.757Z,8.90
2018-06-09T02:06:58.012Z,9.00
2018-06-09T02:09:26.274Z,9.20
2018-06-09T02:11:54.544Z,9.00
2018-06-09T02:14:22.827Z,8.83
2018-06-09T02:16:51.478Z,9.57
2018-06-09T02:19:19.738Z,9.03
2018-06-09T02:21:47.991Z,9.20
2018-06-09T02:24:17.038Z,8.90
2018-06-09T02:26:46.058Z,9.40
2018-06-09T02:29:14.328Z,9.40
2018-06-09T02:31:42.596Z,9.60
2018-06-09T02:34:10.861Z,9.50
2018-06-09T02:36:39.105Z,9.97
2018-06-09T02:39:07.374Z,9.87
2018-06-09T02:41:35.635Z,10.00
2018-06-09T02:44:04.688Z,9.83
2018-06-09T02:46:32.948Z,10.23
2018-06-09T02:49:01.290Z,10.13
2018-06-09T02:51:29.546Z,10.37
2018-06-09T02:53:57.818Z,10.63
2018-06-09T02:56:26.869Z,10.17
2018-06-09T02:58:55.131Z,9.70
2018-06-09T03:01:23.388Z,10.53
2018-06-09T03:03:51.787Z,10.40
2018-06-09T03:06:20.052Z,10.17
2018-06-09T03:08:49.140Z,10.97
2018-06-09T03:11:17.403Z,10.90
2018-06-09T03:13:45.676Z,10.97
2018-06-09T03:16:14.700Z,10.50
2018-06-09T03:18:42.983Z,9.97
2018-06-09T03:21:12.004Z,11.33
2018-06-09T03:23:40.279Z,10.73
2018-06-09T03:26:08.539Z,10.70
2018-06-09T03:28:36.820Z,10.83
2018-06-09T03:31:05.075Z,11.27
2018-06-09T03:33:33.339Z,11.67
2018-06-09T03:36:01.614Z,10.73
2018-06-09T03:38:29.877Z,10.50
2018-06-09T03:40:58.160Z,10.27
2018-06-09T03:43:27.240Z,9.80
2018-06-09T03:45:55.459Z,10.23
2018-06-09T03:48:23.704Z,10.00
2018-06-09T03:50:51.962Z,10.30
2018-06-09T03:53:20.219Z,10.50
2018-06-09T03:55:49.275Z,9.83
2018-06-09T03:58:17.531Z,9.97
2018-06-09T04:00:45.787Z,9.70
2018-06-09T04:03:14.242Z,8.27
2018-06-09T04:05:43.264Z,9.30
2018-06-09T04:08:11.527Z,9.00
2018-06-09T04:10:39.791Z,8.83
2018-06-09T04:13:09.131Z,8.77
2018-06-09T04:15:37.391Z,8.90
2018-06-09T04:18:05.636Z,8.57
2018-06-09T04:20:34.679Z,8.50
2018-06-09T04:23:02.985Z,9.00
2018-06-09T04:25:31.203Z,8.63
2018-06-09T04:27:59.736Z,7.90
2018-06-09T04:30:28.671Z,7.67
2018-06-09T04:32:56.921Z,8.27
2018-06-09T04:35:26.422Z,7.77
2018-06-09T04:37:54.667Z,8.00
2018-06-09T04:40:22.985Z,7.97
2018-06-09T04:42:52.007Z,8.00
2018-06-09T04:45:20.284Z,8.33
2018-06-09T04:47:48.528Z,7.40
2018-06-09T04:50:16.774Z,8.30
2018-06-09T04:52:46.245Z,7.80
2018-06-09T04:55:14.507Z,8.20
2018-06-09T04:57:42.753Z,7.50
2018-06-09T05:00:11.783Z,6.80
2018-06-09T05:02:40.032Z,7.30
2018-06-09T05:05:08.304Z,6.40
2018-06-09T05:07:37.628Z,6.97
2018-06-09T05:10:05.891Z,6.73
2018-06-09T05:12:34.140Z,6.50
2018-06-09T05:15:03.260Z,7.13
2018-06-09T05:17:31.534Z,6.60
2018-06-09T05:19:59.777Z,6.57
2018-06-09T05:22:28.066Z,6.10
2018-06-09T05:24:57.071Z,6.37
2018-06-09T05:27:25.327Z,6.00
2018-06-09T05:29:54.347Z,5.50
2018-06-09T05:32:22.595Z,5.77
2018-06-09T05:34:53.578Z,5.60
2018-06-09T05:37:23.407Z,5.53
2018-06-09T05:39:51.677Z,5.27
2018-06-09T05:42:19.921Z,5.57
2018-06-09T05:44:48.169Z,5.40
2018-06-09T05:47:17.505Z,5.47
2018-06-09T05:49:45.766Z,5.47
2018-06-09T05:52:14.001Z,5.33
2018-06-09T05:54:42.405Z,5.10
2018-06-09T05:57:11.444Z,5.40
2018-06-09T05:59:39.785Z,5.03
2018-06-09T06:02:08.791Z,5.43
2018-06-09T06:04:37.050Z,5.73
2018-06-09T06:07:05.307Z,5.70
2018-06-09T06:09:34.382Z,6.30
2018-06-09T06:12:02.643Z,5.20
2018-06-09T06:14:31.063Z,6.93
2018-06-09T06:17:01.791Z,6.43
2018-06-09T06:19:30.188Z,6.03
2018-06-09T06:21:58.452Z,6.37
2018-06-09T06:24:27.479Z,6.57
2018-06-09T06:26:55.749Z,6.50
2018-06-09T06:29:23.995Z,6.07
2018-06-09T06:31:53.022Z,6.87
2018-06-09T06:34:21.274Z,6.63
2018-06-09T06:36:49.525Z,6.87
2018-06-09T06:39:18.540Z,7.23
2018-06-09T06:41:46.811Z,6.40
2018-06-09T06:44:15.819Z,6.33
2018-06-09T06:46:44.094Z,7.03
2018-06-09T06:49:12.355Z,6.37
2018-06-09T06:51:40.612Z,6.90
2018-06-09T06:54:09.631Z,6.87
2018-06-09T06:56:37.921Z,7.33
2018-06-09T06:59:06.914Z,7.90
2018-06-09T07:01:35.159Z,6.73
2018-06-09T07:04:04.191Z,7.23
2018-06-09T07:06:33.211Z,7.37
2018-06-09T07:09:01.500Z,7.30
2018-06-09T07:11:29.761Z,6.83
2018-06-09T07:13:58.026Z,7.33
2018-06-09T07:16:26.304Z,8.87
2018-06-09T07:18:54.563Z,8.90
2018-06-09T07:21:22.812Z,8.60
2018-06-09T07:23:51.083Z,9.10
2018-06-09T07:26:19.338Z,7.87
2018-06-09T07:28:49.358Z,9.13
2018-06-09T07:31:18.388Z,8.37
2018-06-09T07:33:47.404Z,8.17
2018-06-09T07:36:15.709Z,8.53
2018-06-09T07:38:44.264Z,8.70
2018-06-09T07:41:12.526Z,8.60
2018-06-09T07:43:40.798Z,9.23
2018-06-09T07:46:09.367Z,9.23
2018-06-09T07:48:37.614Z,10.27
2018-06-09T07:51:05.879Z,10.93
2018-06-09T07:53:34.915Z,12.03
2018-06-09T07:56:03.191Z,11.83
2018-06-09T07:58:31.447Z,10.93
2018-06-09T08:00:59.708Z,10.43
2018-06-09T08:03:28.233Z,12.50
2018-06-09T08:05:56.502Z,12.30
2018-06-09T08:08:24.764Z,12.63
2018-06-09T08:10:53.049Z,12.30
2018-06-09T08:13:21.302Z,12.30
2018-06-09T08:15:49.599Z,11.67
2018-06-09T08:18:17.863Z,12.13
2018-06-09T08:20:46.120Z,11.70
2018-06-09T08:23:14.387Z,10.80
2018-06-09T08:25:42.658Z,10.47
2018-06-09T08:28:11.688Z,11.13
2018-06-09T08:30:40.109Z,11.37
2018-06-09T08:33:08.364Z,11.60
2018-06-09T08:35:36.632Z,12.10
2018-06-09T08:38:04.904Z,12.57
2018-06-09T08:40:33.165Z,12.03
2018-06-09T08:43:02.218Z,13.13
2018-06-09T08:45:31.231Z,12.30
2018-06-09T08:47:59.509Z,12.33
2018-06-09T08:50:27.783Z,12.37
2018-06-09T08:52:56.044Z,12.87
2018-06-09T08:55:24.301Z,11.27
2018-06-09T08:57:53.339Z,11.43
2018-06-09T09:00:21.600Z,11.57
2018-06-09T09:02:49.870Z,12.13
2018-06-09T09:05:18.154Z,12.00
2018-06-09T09:07:46.584Z,11.30
2018-06-09T09:10:14.873Z,10.73
2018-06-09T09:12:43.130Z,12.33
2018-06-09T09:15:11.402Z,11.90
2018-06-09T09:17:39.667Z,11.50
2018-06-09T09:20:07.936Z,11.60
2018-06-09T09:22:36.203Z,10.90
2018-06-09T09:25:04.495Z,11.30
2018-06-09T09:27:32.755Z,11.77
2018-06-09T09:30:01.126Z,11.57
2018-06-09T09:32:30.151Z,12.50
2018-06-09T09:34:58.411Z,11.27
2018-06-09T09:37:26.685Z,10.73
2018-06-09T09:39:54.951Z,10.63
2018-06-09T09:42:23.227Z,11.30
2018-06-09T09:44:51.495Z,11.70
2018-06-09T09:47:19.771Z,10.00
2018-06-09T09:49:48.577Z,11.83
2018-06-09T09:52:16.835Z,11.87
2018-06-09T09:54:45.147Z,10.80
2018-06-09T09:57:13.421Z,10.10
2018-06-09T09:59:41.687Z,10.30
2018-06-09T10:02:09.954Z,10.80
2018-06-09T10:04:38.245Z,10.40
2018-06-09T10:07:06.530Z,9.97
2018-06-09T10:09:34.796Z,11.13
2018-06-09T10:12:03.056Z,11.30
2018-06-09T10:14:31.311Z,10.10
2018-06-09T10:16:59.888Z,10.70
2018-06-09T10:19:28.139Z,11.67
2018-06-09T10:21:56.402Z,10.87
2018-06-09T10:24:25.454Z,10.77
2018-06-09T10:26:53.728Z,10.30
2018-06-09T10:29:22.030Z,9.97
2018-06-09T10:31:50.283Z,10.90
2018-06-09T10:34:18.546Z,10.57
2018-06-09T10:36:46.579Z,10.77
2018-06-09T10:39:20.879Z,10.87
2018-06-09T10:41:55.137Z,10.70
2018-06-09T10:44:30.161Z,10.33
2018-06-09T10:47:04.429Z,10.70
2018-06-09T10:49:38.698Z,10.73
2018-06-09T10:52:12.945Z,9.80
2018-06-09T10:54:41.217Z,9.53
2018-06-09T10:57:09.480Z,10.40
2018-06-09T10:59:37.740Z,10.77
2018-06-09T11:02:06.315Z,9.73
2018-06-09T11:04:34.564Z,9.73
2018-06-09T11:07:03.611Z,10.03
2018-06-09T11:09:31.888Z,9.80
2018-06-09T11:12:00.146Z,10.23
2018-06-09T11:14:28.419Z,10.53
2018-06-09T11:16:56.676Z,9.10
2018-06-09T11:19:24.935Z,9.60
2018-06-09T11:21:53.964Z,11.13
2018-06-09T11:24:22.495Z,10.37
2018-06-09T11:26:50.696Z,9.77
2018-06-09T11:29:18.969Z,9.57
2018-06-09T11:31:47.237Z,10.13
2018-06-09T11:34:15.499Z,9.97
2018-06-09T11:36:44.827Z,10.10
2018-06-09T11:39:13.148Z,10.10
2018-06-09T11:41:41.404Z,9.53
2018-06-09T11:44:09.680Z,9.90
2018-06-09T11:46:37.940Z,10.03
2018-06-09T11:49:06.273Z,9.77
2018-06-09T11:51:35.554Z,10.40
2018-06-09T11:54:03.820Z,9.70
2018-06-09T11:56:32.081Z,9.33
2018-06-09T11:59:00.364Z,9.07
2018-06-09T12:01:28.612Z,9.80
2018-06-09T12:03:56.874Z,10.00
2018-06-09T12:06:25.156Z,8.90
2018-06-09T12:08:53.444Z,9.47
2018-06-09T12:11:21.712Z,9.80
2018-06-09T12:13:50.753Z,10.07
2018-06-09T12:16:19.016Z,9.43
2018-06-09T12:18:47.287Z,9.70
2018-06-09T12:21:15.549Z,9.30
2018-06-09T12:23:43.842Z,9.30
2018-06-09T12:26:12.127Z,9.60
2018-06-09T12:28:40.384Z,9.73
2018-06-09T12:31:09.042Z,9.10
2018-06-09T12:33:37.282Z,9.13
2018-06-09T12:36:06.331Z,9.00
2018-06-09T12:38:34.628Z,9.20
2018-06-09T12:41:02.867Z,9.03
2018-06-09T12:43:31.142Z,8.90
2018-06-09T12:45:59.426Z,8.73
2018-06-09T12:48:27.663Z,9.37
2018-06-09T12:50:56.322Z,8.77
2018-06-09T12:53:25.334Z,10.07
2018-06-09T12:55:53.590Z,8.70
2018-06-09T12:58:21.861Z,9.70
2018-06-09T13:00:50.115Z,9.57
2018-06-09T13:03:18.386Z,9.23
2018-06-09T13:05:46.676Z,9.53
2018-06-09T13:08:14.896Z,9.63
2018-06-09T13:10:43.168Z,10.10
2018-06-09T13:13:11.435Z,8.80
2018-06-09T13:15:40.438Z,8.93
2018-06-09T13:18:08.715Z,9.40
2018-06-09T13:20:36.980Z,9.73
2018-06-09T13:23:05.275Z,9.60
2018-06-09T13:25:33.528Z,9.33
2018-06-09T13:28:01.806Z,9.13
2018-06-09T13:30:30.104Z,9.50
2018-06-09T13:32:58.378Z,10.17
2018-06-09T13:35:26.637Z,10.00
2018-06-09T13:37:54.895Z,9.97
2018-06-09T13:40:23.946Z,9.70
2018-06-09T13:42:52.206Z,10.13
2018-06-09T13:45:20.459Z,9.40
2018-06-09T13:47:48.755Z,9.57
2018-06-09T13:50:17.002Z,9.93
2018-06-09T13:52:45.277Z,10.67
2018-06-09T13:55:13.571Z,10.17
2018-06-09T13:57:41.845Z,10.03
2018-06-09T14:00:10.104Z,11.00
2018-06-09T14:02:38.510Z,10.80
2018-06-09T14:05:06.852Z,10.73
2018-06-09T14:07:35.088Z,10.13
2018-06-09T14:10:03.350Z,9.93
2018-06-09T14:12:31.910Z,10.40
2018-06-09T14:15:00.175Z,9.57
2018-06-09T14:17:28.434Z,10.20
2018-06-09T14:19:56.718Z,9.67
2018-06-09T14:22:24.995Z,10.57
2018-06-09T14:24:53.259Z,10.60
2018-06-09T14:27:21.507Z,10.07
2018-06-09T14:29:49.768Z,10.00
2018-06-09T14:32:18.056Z,10.10
2018-06-09T14:34:46.343Z,10.17
2018-06-09T14:37:15.367Z,10.53
2018-06-09T14:39:43.639Z,10.67
2018-06-09T14:42:11.905Z,10.63
2018-06-09T14:44:40.158Z,10.70
2018-06-09T14:47:10.158Z,10.03
2018-06-09T14:49:38.442Z,9.93
2018-06-09T14:52:06.721Z,10.03
2018-06-09T14:54:35.012Z,11.70
2018-06-09T14:57:04.060Z,11.27
2018-06-09T14:59:32.324Z,10.40
2018-06-09T15:02:00.711Z,10.80
2018-06-09T15:04:33.211Z,8.80
2018-06-09T15:07:01.473Z,8.50
2018-06-09T15:09:29.728Z,8.07
2018-06-09T15:11:57.982Z,7.97
2018-06-09T15:14:27.009Z,7.60
2018-06-09T15:16:55.263Z,7.10
2018-06-09T15:19:23.560Z,7.03
2018-06-09T15:21:52.177Z,6.33
2018-06-09T15:24:20.426Z,7.27
2018-06-09T15:26:48.732Z,7.43
2018-06-09T15:29:17.757Z,6.43
2018-06-09T15:31:46.017Z,6.43
2018-06-09T15:34:14.289Z,6.40
2018-06-09T15:36:42.588Z,6.13
2018-06-09T15:39:11.618Z,6.53
2018-06-09T15:41:39.887Z,5.80
2018-06-09T15:44:08.949Z,6.00
2018-06-09T15:46:37.306Z,6.00
2018-06-09T15:49:06.308Z,5.97
2018-06-09T15:51:34.576Z,6.00
2018-06-09T15:54:03.233Z,6.10
2018-06-09T15:56:31.768Z,5.87
2018-06-09T15:59:00.044Z,5.90
2018-06-09T16:01:28.304Z,6.20
2018-06-09T16:03:56.577Z,6.87
2018-06-09T16:06:25.735Z,11.07
2018-06-09T16:08:54.809Z,8.87
2018-06-09T16:11:23.101Z,7.77
2018-06-09T16:13:51.323Z,8.00
2018-06-09T16:16:19.620Z,8.37
2018-06-09T16:18:47.874Z,7.40
2018-06-09T16:21:16.145Z,6.77
2018-06-09T16:23:44.412Z,6.43
2018-06-09T16:26:12.672Z,6.90
2018-06-09T16:28:40.953Z,7.53
2018-06-09T16:31:10.136Z,7.50
2018-06-09T16:33:38.435Z,7.87
2018-06-09T16:36:06.686Z,8.23
2018-06-09T16:38:35.774Z,7.47
2018-06-09T16:41:04.005Z,7.07
2018-06-09T16:43:32.274Z,7.20
2018-06-09T16:46:00.532Z,6.73
2018-06-09T16:48:28.827Z,6.27
2018-06-09T16:50:57.075Z,5.80
2018-06-09T16:53:25.338Z,5.70
2018-06-09T16:55:53.614Z,5.90
2018-06-09T16:58:22.882Z,5.77
2018-06-09T17:00:51.142Z,6.00
2018-06-09T17:03:19.450Z,5.37
2018-06-09T17:05:48.464Z,5.60
2018-06-09T17:08:16.739Z,5.50
2018-06-09T17:10:45.040Z,5.17
2018-06-09T17:13:13.281Z,5.30
2018-06-09T17:15:41.555Z,5.50
2018-06-09T17:18:09.814Z,5.53
2018-06-09T17:20:38.833Z,5.10
2018-06-09T17:23:07.138Z,4.80
2018-06-09T17:25:35.399Z,5.80
2018-06-09T17:28:03.655Z,5.07
2018-06-09T17:30:31.928Z,4.90
2018-06-09T17:33:00.187Z,5.60
2018-06-09T17:35:29.230Z,5.30
2018-06-09T17:37:57.482Z,4.93
2018-06-09T17:40:26.167Z,5.27
2018-06-09T17:42:54.426Z,5.30
2018-06-09T17:45:22.686Z,5.70
2018-06-09T17:47:51.718Z,6.40
2018-06-09T17:50:20.026Z,6.30
2018-06-09T17:52:48.287Z,5.90
2018-06-09T17:55:16.563Z,5.60
2018-06-09T17:57:44.844Z,5.57
2018-06-09T18:03:23.916Z,6.50
2018-06-09T18:05:52.949Z,5.83
2018-06-09T18:08:21.199Z,6.27
2018-06-09T18:10:49.475Z,6.80
2018-06-09T18:13:17.721Z,6.60
2018-06-09T18:15:46.752Z,6.73
2018-06-09T18:18:15.043Z,6.80
2018-06-09T18:20:43.298Z,7.20
2018-06-09T18:23:11.597Z,7.87
2018-06-09T18:25:39.864Z,8.10
2018-06-09T18:28:08.147Z,7.83
2018-06-09T18:30:36.438Z,8.13
2018-06-09T18:33:04.682Z,7.23
2018-06-09T18:35:32.964Z,8.03
2018-06-09T18:38:01.287Z,8.17
2018-06-09T18:40:29.564Z,8.13
2018-06-09T18:42:57.864Z,8.40
2018-06-09T18:45:27.138Z,9.30
2018-06-09T18:47:56.196Z,9.83
2018-06-09T18:50:24.448Z,9.07
2018-06-09T18:52:52.739Z,8.70
2018-06-09T18:55:20.994Z,8.93
2018-06-09T18:57:49.284Z,8.57
2018-06-09T19:00:17.710Z,8.53
2018-06-09T19:02:45.954Z,8.70
2018-06-09T19:05:14.353Z,9.30
2018-06-09T19:07:42.698Z,8.47
2018-06-09T19:10:11.024Z,9.53
2018-06-09T19:12:39.418Z,9.70
2018-06-09T19:15:08.436Z,9.10
2018-06-09T19:17:36.696Z,9.07
2018-06-09T19:20:05.018Z,9.83
2018-06-09T19:22:33.588Z,9.57
2018-06-09T19:25:01.850Z,10.10
2018-06-09T19:27:30.142Z,9.83
2018-06-09T19:29:58.391Z,10.20
2018-06-09T19:32:26.645Z,9.57
2018-06-09T19:34:55.736Z,9.63
2018-06-09T19:37:24.800Z,10.07
2018-06-09T19:39:53.072Z,10.30
2018-06-09T19:42:21.595Z,9.97
2018-06-09T19:44:49.858Z,9.80
2018-06-09T19:47:18.882Z,10.33
2018-06-09T19:49:47.159Z,9.97
2018-06-09T19:52:15.428Z,9.90
2018-06-09T19:54:43.949Z,10.37
2018-06-09T19:57:12.217Z,9.97
2018-06-09T19:59:40.479Z,9.87
2018-06-09T20:02:08.767Z,9.80
2018-06-09T20:04:37.015Z,10.27
2018-06-09T20:07:05.324Z,10.17
2018-06-09T20:09:33.583Z,10.37
2018-06-09T20:12:03.325Z,10.80
2018-06-09T20:14:32.154Z,10.70
2018-06-09T20:17:00.419Z,9.97
2018-06-09T20:19:28.697Z,10.27
2018-06-09T20:21:56.994Z,11.03
2018-06-09T20:24:25.253Z,10.77
2018-06-09T20:26:53.522Z,9.60
2018-06-09T20:29:21.795Z,9.43
2018-06-09T20:31:50.091Z,10.50
2018-06-09T20:34:18.706Z,10.93
2018-06-09T20:36:46.966Z,11.13
2018-06-09T20:39:15.236Z,10.30
2018-06-09T20:41:43.509Z,10.63
2018-06-09T20:44:11.753Z,10.50
2018-06-09T20:46:40.035Z,10.93
2018-06-09T20:49:08.294Z,10.57
2018-06-09T20:51:36.563Z,11.03
2018-06-09T20:54:04.830Z,10.97
2018-06-09T20:56:33.863Z,11.10
2018-06-09T20:59:02.175Z,10.80
2018-06-09T21:01:30.429Z,11.80
2018-06-09T21:03:58.708Z,11.03
2018-06-09T21:06:26.963Z,11.27
2018-06-09T21:08:55.220Z,10.97
2018-06-09T21:11:23.497Z,11.40
2018-06-09T21:13:51.763Z,11.70
2018-06-09T21:16:20.023Z,11.37
2018-06-09T21:18:49.084Z,11.67
2018-06-09T21:21:17.337Z,12.07
2018-06-09T21:23:45.602Z,11.47
2018-06-09T21:26:13.882Z,11.83
2018-06-09T21:28:42.150Z,11.77
2018-06-09T21:31:10.744Z,12.17
2018-06-09T21:33:50.871Z,12.17
2018-06-09T21:36:19.905Z,12.77
2018-06-09T21:38:48.180Z,11.53
2018-06-09T21:41:16.436Z,11.80
2018-06-09T21:43:44.706Z,12.43
2018-06-09T21:46:12.971Z,11.40
2018-06-09T21:48:41.242Z,11.53
2018-06-09T21:51:09.510Z,11.90
2018-06-09T21:53:37.787Z,11.70
2018-06-09T21:56:06.063Z,11.87
2018-06-09T21:58:34.344Z,12.33
2018-06-09T22:01:02.601Z,12.30
2018-06-09T22:03:31.888Z,11.67
2018-06-09T22:06:00.928Z,12.00
2018-06-09T22:08:29.204Z,12.23
2018-06-09T22:10:57.460Z,11.87
2018-06-09T22:13:25.772Z,10.90
2018-06-09T22:15:54.020Z,12.67
2018-06-09T22:18:22.304Z,12.77
2018-06-09T22:20:50.563Z,12.73
2018-06-09T22:23:18.835Z,13.67
2018-06-09T22:25:47.114Z,13.20
2018-06-09T22:28:15.384Z,13.30
2018-06-09T22:30:43.642Z,12.70
2018-06-09T22:33:12.725Z,12.43
2018-06-09T22:35:40.979Z,12.23
2018-06-09T22:38:09.253Z,12.90
2018-06-09T22:40:37.537Z,12.40
2018-06-09T22:43:05.782Z,12.30
2018-06-09T22:45:34.069Z,12.87
2018-06-09T22:48:02.336Z,11.83
2018-06-09T22:50:30.613Z,12.87
2018-06-09T22:52:58.874Z,12.13
2018-06-09T22:55:27.148Z,12.10
2018-06-09T22:57:55.404Z,12.27
2018-06-09T23:00:23.659Z,12.67
2018-06-09T23:02:52.704Z,11.93
2018-06-09T23:05:20.969Z,12.23
2018-06-09T23:07:49.235Z,11.47
2018-06-09T23:10:17.486Z,11.27
2018-06-09T23:12:45.759Z,11.10
2018-06-09T23:15:14.798Z,11.73
2018-06-09T23:17:43.075Z,10.73
2018-06-09T23:20:11.336Z,11.23
2018-06-09T23:22:39.720Z,11.67
2018-06-09T23:25:07.968Z,11.40
2018-06-09T23:27:36.223Z,12.37
2018-06-09T23:30:05.270Z,11.27
2018-06-09T23:32:33.527Z,11.37
2018-06-09T23:35:01.784Z,11.63
2018-06-09T23:37:30.064Z,10.60
2018-06-09T23:39:58.314Z,11.07
2018-06-09T23:42:27.354Z,10.87
2018-06-09T23:44:55.614Z,11.07
2018-06-09T23:47:23.876Z,11.50
2018-06-09T23:49:52.124Z,11.40
2018-06-09T23:52:21.163Z,10.47
2018-06-09T23:54:49.415Z,11.17
2018-06-09T23:57:17.671Z,11.03
2018-06-09T23:59:46.706Z,11.80
